createdAt,value
2023-02-23T00:01:26.522Z,6.35
2023-02-23T00:03:56.245Z,6.38
2023-02-23T00:06:24.765Z,6.38
2023-02-23T00:08:52.419Z,6.60
2023-02-23T00:11:20.835Z,6.60
2023-02-23T00:13:50.248Z,7.15
2023-02-23T00:16:19.003Z,6.22
2023-02-23T00:18:50.649Z,6.07
2023-02-23T00:21:20.002Z,5.97
2023-02-23T00:23:52.147Z,6.57
2023-02-23T00:26:23.487Z,6.43
2023-02-23T00:28:51.535Z,6.90
2023-02-23T00:31:19.298Z,5.90
2023-02-23T00:33:47.009Z,5.80
2023-02-23T00:36:15.640Z,5.85
2023-02-23T00:38:45.983Z,5.80
2023-02-23T00:41:21.535Z,5.68
2023-02-23T00:43:48.995Z,5.95
2023-02-23T00:46:21.552Z,5.75
2023-02-23T00:48:49.798Z,5.70
2023-02-23T00:51:18.283Z,5.60
2023-02-23T00:53:46.190Z,5.28
2023-02-23T00:56:15.182Z,5.05
2023-02-23T00:58:43.446Z,5.30
2023-02-23T01:01:11.824Z,4.90
2023-02-23T01:03:41.463Z,4.93
2023-02-23T01:06:12.804Z,4.82
2023-02-23T01:08:42.691Z,4.90
2023-02-23T01:11:15.506Z,5.15
2023-02-23T01:13:44.364Z,4.45
2023-02-23T01:16:13.852Z,4.63
2023-02-23T01:18:42.266Z,4.72
2023-02-23T01:21:17.302Z,4.50
2023-02-23T01:26:38.603Z,4.35
2023-02-23T01:29:08.818Z,4.03
2023-02-23T01:31:37.176Z,4.70
2023-02-23T01:34:06.005Z,4.22
2023-02-23T01:36:38.988Z,4.45
2023-02-23T01:39:08.601Z,4.70
2023-02-23T01:41:37.145Z,4.35
2023-02-23T01:44:09.329Z,6.00
2023-02-23T01:46:40.942Z,3.90
2023-02-23T01:49:09.712Z,4.20
2023-02-23T01:51:42.980Z,4.15
2023-02-23T01:54:15.993Z,4.10
2023-02-23T01:56:45.936Z,4.18
2023-02-23T01:59:15.362Z,3.83
2023-02-23T02:01:43.785Z,4.25
2023-02-23T02:04:16.544Z,3.92
2023-02-23T02:06:45.430Z,3.92
2023-02-23T02:09:18.386Z,3.90
2023-02-23T02:11:46.711Z,4.47
2023-02-23T02:14:18.193Z,4.50
2023-02-23T02:17:02.354Z,4.50
2023-02-23T02:19:33.746Z,4.22
2023-02-23T02:22:10.300Z,4.18
2023-02-23T02:25:11.967Z,3.97
2023-02-23T02:28:04.006Z,4.53
2023-02-23T02:30:46.293Z,4.32
2023-02-23T02:33:16.822Z,4.40
2023-02-23T02:35:53.538Z,4.65
2023-02-23T02:38:23.061Z,4.93
2023-02-23T02:40:56.893Z,5.18
2023-02-23T02:43:53.796Z,4.82
2023-02-23T02:46:24.054Z,4.93
2023-02-23T02:49:00.790Z,4.70
2023-02-23T02:51:39.646Z,5.28
2023-02-23T02:54:07.355Z,4.88
2023-02-23T02:56:42.025Z,5.43
2023-02-23T02:59:33.181Z,5.18
2023-02-23T03:02:19.991Z,4.88
2023-02-23T03:05:06.098Z,4.55
2023-02-23T03:07:52.453Z,5.47
2023-02-23T03:11:07.341Z,5.35
2023-02-23T03:13:53.665Z,5.00
2023-02-23T03:16:44.007Z,4.53
2023-02-23T03:19:34.918Z,4.57
2023-02-23T03:22:33.132Z,4.57
2023-02-23T03:25:26.518Z,4.57
2023-02-23T03:28:31.277Z,4.50
2023-02-23T03:31:32.148Z,4.03
2023-02-23T03:34:27.502Z,4.60
2023-02-23T03:37:22.678Z,5.07
2023-02-23T03:40:16.428Z,5.50
2023-02-23T03:43:02.937Z,5.30
2023-02-23T03:45:49.571Z,5.35
2023-02-23T03:48:37.294Z,5.70
2023-02-23T03:51:26.392Z,5.28
2023-02-23T03:54:31.382Z,5.30
2023-02-23T03:57:18.802Z,5.30
2023-02-23T04:00:07.725Z,4.82
2023-02-23T04:03:00.754Z,4.45
2023-02-23T04:05:48.229Z,4.45
2023-02-23T04:08:34.741Z,4.18
2023-02-23T04:11:30.935Z,4.03
2023-02-23T04:16:25.700Z,4.38
2023-02-23T04:18:53.168Z,4.10
2023-02-23T04:21:20.908Z,4.30
2023-02-23T04:23:48.585Z,4.07
2023-02-23T04:26:16.109Z,4.03
2023-02-23T04:28:43.578Z,4.30
2023-02-23T04:31:11.015Z,3.80
2023-02-23T04:33:38.639Z,4.20
2023-02-23T04:36:06.363Z,4.18
2023-02-23T04:38:33.787Z,4.00
2023-02-23T04:41:01.388Z,4.05
2023-02-23T04:43:29.178Z,3.65
2023-02-23T04:45:56.643Z,3.63
2023-02-23T04:48:25.193Z,4.38
2023-02-23T04:50:53.286Z,3.92
2023-02-23T04:53:20.685Z,4.30
2023-02-23T04:55:48.187Z,4.05
2023-02-23T04:58:16.007Z,4.22
2023-02-23T05:00:43.467Z,4.68
2023-02-23T05:03:12.270Z,4.13
2023-02-23T05:05:40.040Z,4.00
2023-02-23T05:08:07.616Z,4.45
2023-02-23T05:10:35.284Z,4.63
2023-02-23T05:13:02.904Z,4.53
2023-02-23T05:15:30.400Z,4.43
2023-02-23T05:17:57.785Z,4.32
2023-02-23T05:20:25.208Z,4.55
2023-02-23T05:22:52.784Z,5.68
2023-02-23T05:25:20.257Z,5.90
2023-02-23T05:27:47.652Z,5.03
2023-02-23T05:30:15.561Z,4.90
2023-02-23T05:32:43.380Z,5.10
2023-02-23T05:35:11.063Z,5.28
2023-02-23T05:37:38.472Z,5.07
2023-02-23T05:40:06.154Z,5.38
2023-02-23T05:42:33.565Z,4.95
2023-02-23T05:45:00.999Z,5.30
2023-02-23T05:47:28.562Z,6.13
2023-02-23T05:49:55.989Z,6.28
2023-02-23T05:52:23.481Z,5.90
2023-02-23T05:54:50.873Z,5.13
2023-02-23T05:57:18.294Z,4.53
2023-02-23T05:59:45.711Z,4.63
2023-02-23T06:02:13.239Z,4.90
2023-02-23T06:04:41.995Z,4.85
2023-02-23T06:07:09.393Z,5.40
2023-02-23T06:09:36.858Z,5.30
2023-02-23T06:12:04.577Z,7.78
2023-02-23T06:14:32.420Z,6.30
2023-02-23T06:17:00.389Z,6.13
2023-02-23T06:19:27.920Z,7.07
2023-02-23T06:21:55.347Z,9.45
2023-02-23T06:24:23.614Z,8.45
2023-02-23T06:26:51.266Z,12.68
2023-02-23T06:29:18.741Z,11.57
2023-02-23T06:31:46.269Z,6.03
2023-02-23T06:34:13.791Z,4.68
2023-02-23T06:36:41.246Z,4.70
2023-02-23T06:39:08.683Z,4.45
2023-02-23T06:41:36.078Z,4.35
2023-02-23T06:44:03.575Z,4.32
2023-02-23T06:46:31.091Z,5.18
2023-02-23T06:48:59.792Z,4.57
2023-02-23T06:51:27.303Z,5.07
2023-02-23T06:53:54.858Z,5.97
2023-02-23T06:56:22.284Z,4.90
2023-02-23T06:58:49.913Z,3.92
2023-02-23T07:01:19.017Z,4.80
2023-02-23T07:03:46.700Z,5.68
2023-02-23T07:06:14.108Z,4.43
2023-02-23T07:08:41.506Z,4.50
2023-02-23T07:11:13.591Z,4.95
2023-02-23T07:13:41.417Z,5.40
2023-02-23T07:16:09.622Z,5.18
2023-02-23T07:18:37.198Z,5.45
2023-02-23T07:21:04.613Z,4.95
2023-02-23T07:23:32.335Z,5.07
2023-02-23T07:26:00.976Z,4.65
2023-02-23T07:28:28.862Z,4.80
2023-02-23T07:30:57.501Z,4.90
2023-02-23T07:33:25.712Z,4.97
2023-02-23T07:35:53.193Z,6.20
2023-02-23T07:38:20.715Z,5.07
2023-02-23T07:40:50.278Z,5.93
2023-02-23T07:43:17.798Z,5.55
2023-02-23T07:45:46.637Z,4.60
2023-02-23T07:48:14.347Z,4.25
2023-02-23T07:50:42.722Z,5.00
2023-02-23T07:53:11.429Z,4.63
2023-02-23T07:55:39.119Z,5.55
2023-02-23T07:58:07.308Z,4.78
2023-02-23T08:00:36.576Z,4.22
2023-02-23T08:03:04.062Z,3.80
2023-02-23T08:05:31.459Z,4.15
2023-02-23T08:07:59.639Z,5.72
2023-02-23T08:10:27.239Z,6.25
2023-02-23T08:12:54.784Z,6.43
2023-02-23T08:15:22.455Z,7.10
2023-02-23T08:17:49.866Z,5.63
2023-02-23T08:20:17.363Z,3.90
2023-02-23T08:22:49.838Z,5.50
2023-02-23T08:25:17.926Z,4.95
2023-02-23T08:27:45.293Z,4.32
2023-02-23T08:30:14.208Z,4.45
2023-02-23T08:32:41.986Z,4.32
2023-02-23T08:35:10.724Z,4.70
2023-02-23T08:37:38.380Z,4.60
2023-02-23T08:40:06.210Z,4.13
2023-02-23T08:42:33.675Z,4.70
2023-02-23T08:45:01.582Z,4.15
2023-02-23T08:47:29.975Z,3.90
2023-02-23T08:49:57.431Z,4.03
2023-02-23T08:52:25.642Z,4.40
2023-02-23T08:54:53.044Z,5.45
2023-02-23T08:57:20.467Z,4.13
2023-02-23T08:59:47.961Z,4.15
2023-02-23T09:02:15.730Z,4.22
2023-02-23T09:04:43.629Z,5.72
2023-02-23T09:07:15.273Z,5.95
2023-02-23T09:09:42.731Z,5.10
2023-02-23T09:12:10.173Z,5.57
2023-02-23T09:14:37.612Z,7.38
2023-02-23T09:17:05.004Z,5.65
2023-02-23T09:19:32.457Z,6.38
2023-02-23T09:21:59.878Z,5.75
2023-02-23T09:24:27.348Z,6.03
2023-02-23T09:26:54.735Z,4.22
2023-02-23T09:29:23.100Z,4.32
2023-02-23T09:31:53.046Z,7.07
2023-02-23T09:34:20.800Z,4.38
2023-02-23T09:36:48.291Z,6.43
2023-02-23T09:39:15.752Z,4.82
2023-02-23T09:42:01.905Z,4.65
2023-02-23T09:44:58.941Z,4.53
2023-02-23T09:47:40.565Z,4.85
2023-02-23T09:50:15.510Z,6.15
2023-02-23T09:52:45.018Z,5.18
2023-02-23T09:55:13.652Z,6.70
2023-02-23T09:57:43.561Z,4.18
2023-02-23T10:00:31.304Z,4.65
2023-02-23T10:03:12.742Z,5.05
2023-02-23T10:05:43.971Z,4.65
2023-02-23T10:08:21.171Z,4.05
2023-02-23T10:10:50.363Z,4.43
2023-02-23T10:13:32.808Z,3.90
2023-02-23T10:16:09.467Z,4.00
2023-02-23T10:18:46.469Z,4.18
2023-02-23T10:21:35.268Z,4.40
2023-02-23T10:24:13.292Z,4.32
2023-02-23T10:26:44.234Z,3.72
2023-02-23T10:29:28.006Z,4.25
2023-02-23T10:32:01.050Z,4.20
2023-02-23T10:34:29.414Z,4.60
2023-02-23T10:36:56.762Z,4.45
2023-02-23T10:39:24.395Z,5.40
2023-02-23T10:41:52.167Z,3.95
2023-02-23T10:44:24.527Z,4.25
2023-02-23T10:46:55.949Z,4.63
2023-02-23T10:49:25.644Z,5.05
2023-02-23T10:51:58.135Z,4.15
2023-02-23T10:54:36.297Z,4.63
2023-02-23T10:57:05.381Z,4.72
2023-02-23T10:59:33.528Z,4.65
2023-02-23T11:02:02.847Z,4.13
2023-02-23T11:04:31.877Z,5.38
2023-02-23T11:07:10.282Z,5.72
2023-02-23T11:09:46.723Z,6.82
2023-02-23T11:12:26.392Z,4.88
2023-02-23T11:14:54.823Z,5.85
2023-02-23T11:17:34.242Z,5.53
2023-02-23T11:20:07.315Z,5.72
2023-02-23T11:22:36.761Z,5.72
2023-02-23T11:25:13.078Z,5.65
2023-02-23T11:27:40.576Z,6.25
2023-02-23T11:30:08.349Z,5.60
2023-02-23T11:32:38.886Z,6.40
2023-02-23T11:35:21.851Z,5.03
2023-02-23T11:37:49.645Z,5.18
2023-02-23T11:40:24.462Z,5.30
2023-02-23T11:42:55.405Z,5.88
2023-02-23T11:45:24.369Z,5.00
2023-02-23T11:47:53.124Z,4.65
2023-02-23T11:50:30.860Z,5.72
2023-02-23T11:53:04.382Z,4.95
2023-02-23T11:55:32.839Z,5.15
2023-02-23T11:58:19.319Z,5.10
2023-02-23T12:00:55.634Z,7.40
2023-02-23T12:03:24.719Z,4.95
2023-02-23T12:05:53.319Z,4.93
2023-02-23T12:08:40.964Z,5.78
2023-02-23T12:11:13.216Z,6.43
2023-02-23T12:13:47.584Z,5.43
2023-02-23T12:16:27.340Z,5.40
2023-02-23T12:18:57.855Z,5.68
2023-02-23T12:21:29.702Z,5.38
2023-02-23T12:24:20.099Z,7.00
2023-02-23T12:26:47.558Z,6.25
2023-02-23T12:29:30.448Z,5.15
2023-02-23T12:32:03.584Z,5.35
2023-02-23T12:34:40.694Z,5.80
2023-02-23T12:37:11.231Z,5.93
2023-02-23T12:39:44.060Z,5.78
2023-02-23T12:42:23.769Z,5.75
2023-02-23T12:44:56.039Z,5.10
2023-02-23T12:48:01.818Z,5.95
2023-02-23T12:50:34.515Z,4.72
2023-02-23T12:53:33.921Z,5.63
2023-02-23T12:56:04.340Z,5.53
2023-02-23T12:58:38.872Z,5.50
2023-02-23T13:01:44.850Z,5.07
2023-02-23T13:04:38.716Z,5.03
2023-02-23T13:07:09.267Z,6.10
2023-02-23T13:09:46.277Z,5.38
2023-02-23T13:12:26.827Z,4.93
2023-02-23T13:15:00.823Z,5.82
2023-02-23T13:17:37.545Z,5.50
2023-02-23T13:20:27.757Z,5.60
2023-02-23T13:23:24.544Z,5.55
2023-02-23T13:25:51.999Z,5.18
2023-02-23T13:28:22.630Z,5.40
2023-02-23T13:30:50.311Z,5.68
2023-02-23T13:33:34.952Z,4.40
2023-02-23T13:36:09.816Z,5.30
2023-02-23T13:38:58.730Z,6.85
2023-02-23T13:41:40.733Z,5.55
2023-02-23T13:44:20.693Z,4.68
2023-02-23T13:46:54.442Z,6.50
2023-02-23T13:49:40.609Z,7.20
2023-02-23T13:52:30.758Z,6.57
2023-02-23T13:55:03.024Z,6.18
2023-02-23T13:57:31.979Z,7.18
2023-02-23T14:00:00.263Z,5.85
2023-02-23T14:02:34.615Z,6.22
2023-02-23T14:05:25.174Z,5.60
2023-02-23T14:07:56.831Z,5.13
2023-02-23T14:10:45.359Z,4.75
2023-02-23T14:13:15.930Z,5.15
2023-02-23T14:15:45.194Z,5.82
2023-02-23T14:18:18.375Z,4.90
2023-02-23T14:21:05.152Z,5.68
2023-02-23T14:23:37.334Z,5.10
2023-02-23T14:26:16.419Z,5.50
2023-02-23T14:29:07.188Z,5.65
2023-02-23T14:31:35.868Z,5.70
2023-02-23T14:34:08.499Z,4.65
2023-02-23T14:36:43.914Z,5.85
2023-02-23T14:39:17.589Z,5.43
2023-02-23T14:41:50.207Z,8.02
2023-02-23T14:44:30.640Z,6.10
2023-02-23T14:46:58.813Z,7.72
2023-02-23T14:49:27.996Z,9.52
2023-02-23T14:51:56.501Z,7.53
2023-02-23T14:54:25.585Z,8.13
2023-02-23T14:56:55.214Z,7.95
2023-02-23T14:59:24.164Z,7.57
2023-02-23T15:01:52.394Z,5.88
2023-02-23T15:04:31.471Z,6.88
2023-02-23T15:07:01.391Z,5.63
2023-02-23T15:09:35.160Z,5.63
2023-02-23T15:12:06.064Z,6.53
2023-02-23T15:14:37.823Z,5.55
2023-02-23T15:17:05.501Z,7.05
2023-02-23T15:19:39.338Z,6.47
2023-02-23T15:22:07.134Z,6.63
2023-02-23T15:24:42.086Z,6.65
2023-02-23T15:27:20.693Z,5.95
2023-02-23T15:29:48.192Z,5.55
2023-02-23T15:32:21.941Z,5.65
2023-02-23T15:34:49.983Z,6.28
2023-02-23T15:37:17.407Z,6.10
2023-02-23T15:39:48.460Z,6.25
2023-02-23T15:42:18.209Z,10.02
2023-02-23T15:44:46.321Z,11.35
2023-02-23T15:47:20.026Z,8.85
2023-02-23T15:49:47.693Z,11.55
2023-02-23T15:52:24.872Z,12.02
2023-02-23T15:54:56.864Z,13.27
2023-02-23T15:57:34.636Z,7.80
2023-02-23T16:00:07.876Z,7.38
2023-02-23T16:02:37.129Z,10.57
2023-02-23T16:05:15.585Z,10.60
2023-02-23T16:07:43.484Z,8.10
2023-02-23T16:10:24.552Z,8.15
2023-02-23T16:12:53.755Z,9.77
2023-02-23T16:15:24.174Z,8.57
2023-02-23T16:18:11.850Z,8.77
2023-02-23T16:20:41.514Z,5.85
2023-02-23T16:23:37.047Z,7.80
2023-02-23T16:26:12.912Z,9.07
2023-02-23T16:28:44.588Z,7.43
2023-02-23T16:31:16.733Z,6.10
2023-02-23T16:33:44.323Z,7.68
2023-02-23T16:36:11.724Z,7.25
2023-02-23T16:38:59.096Z,6.85
2023-02-23T16:41:28.120Z,8.48
2023-02-23T16:43:56.631Z,6.88
2023-02-23T16:46:25.877Z,11.07
2023-02-23T16:48:53.394Z,8.40
2023-02-23T16:51:23.585Z,8.27
2023-02-23T16:53:52.613Z,7.65
2023-02-23T16:56:22.385Z,8.43
2023-02-23T16:58:52.698Z,7.85
2023-02-23T17:01:20.604Z,9.38
2023-02-23T17:03:53.151Z,9.90
2023-02-23T17:06:24.057Z,10.02
2023-02-23T17:08:58.042Z,9.73
2023-02-23T17:11:26.302Z,8.90
2023-02-23T17:13:53.841Z,7.53
2023-02-23T17:16:21.613Z,7.22
2023-02-23T17:18:49.394Z,7.63
2023-02-23T17:21:23.039Z,6.85
2023-02-23T17:23:51.277Z,6.47
2023-02-23T17:26:24.248Z,7.18
2023-02-23T17:28:52.170Z,6.72
2023-02-23T17:31:20.578Z,6.18
2023-02-23T17:33:48.729Z,6.53
2023-02-23T17:36:17.594Z,6.95
2023-02-23T17:38:45.301Z,6.70
2023-02-23T17:41:20.371Z,5.72
2023-02-23T17:46:15.554Z,5.53
2023-02-23T17:48:47.371Z,4.57
2023-02-23T17:51:16.792Z,6.05
2023-02-23T17:53:44.546Z,6.28
2023-02-23T17:56:12.094Z,7.30
2023-02-23T17:58:40.346Z,5.72
2023-02-23T18:01:08.551Z,5.63
2023-02-23T18:03:37.030Z,5.95
2023-02-23T18:06:11.607Z,6.68
2023-02-23T18:08:40.194Z,5.43
2023-02-23T18:11:07.677Z,5.70
2023-02-23T18:13:35.168Z,5.53
2023-02-23T18:16:10.174Z,6.20
2023-02-23T18:21:05.661Z,6.18
2023-02-23T18:23:33.087Z,6.20
2023-02-23T18:26:20.821Z,7.05
2023-02-23T18:28:48.759Z,6.50
2023-02-23T18:31:17.939Z,7.32
2023-02-23T18:33:46.390Z,7.20
2023-02-23T18:36:35.325Z,6.10
2023-02-23T18:39:03.444Z,6.47
2023-02-23T18:41:31.252Z,6.25
2023-02-23T18:43:59.201Z,7.13
2023-02-23T18:46:27.079Z,6.57
2023-02-23T18:48:57.536Z,6.30
2023-02-23T18:51:25.792Z,5.10
2023-02-23T18:53:55.875Z,6.82
2023-02-23T18:56:27.225Z,4.57
2023-02-23T18:59:06.687Z,5.90
2023-02-23T19:01:34.811Z,4.63
2023-02-23T19:04:02.923Z,5.45
2023-02-23T19:06:30.613Z,5.30
2023-02-23T19:08:59.549Z,5.72
2023-02-23T19:11:28.284Z,5.75
2023-02-23T19:13:57.179Z,6.07
2023-02-23T19:16:25.425Z,5.97
2023-02-23T19:18:54.291Z,5.03
2023-02-23T19:21:25.137Z,5.35
2023-02-23T19:23:53.132Z,6.65
2023-02-23T19:26:21.452Z,5.68
2023-02-23T19:28:49.575Z,5.45
2023-02-23T19:31:22.406Z,6.60
2023-02-23T19:33:50.621Z,6.70
2023-02-23T19:36:19.623Z,5.78
2023-02-23T19:38:48.624Z,5.93
2023-02-23T19:41:17.537Z,5.63
2023-02-23T19:43:45.303Z,5.88
2023-02-23T19:46:17.261Z,5.28
2023-02-23T19:48:49.236Z,7.45
2023-02-23T19:51:16.683Z,6.10
2023-02-23T19:53:44.767Z,9.50
2023-02-23T19:56:13.369Z,5.47
2023-02-23T19:58:44.925Z,12.57
2023-02-23T20:01:14.756Z,5.30
2023-02-23T20:03:43.321Z,6.00
2023-02-23T20:06:13.417Z,7.07
2023-02-23T20:08:44.649Z,5.40
2023-02-23T20:11:15.221Z,7.88
2023-02-23T20:13:42.959Z,9.27
2023-02-23T20:16:14.131Z,5.90
2023-02-23T20:18:42.449Z,5.18
2023-02-23T20:21:10.065Z,4.78
2023-02-23T20:23:37.544Z,4.63
2023-02-23T20:26:06.728Z,4.88
2023-02-23T20:28:34.194Z,5.40
2023-02-23T20:31:04.747Z,4.93
2023-02-23T20:33:32.278Z,4.60
2023-02-23T20:35:59.911Z,5.30
2023-02-23T20:38:27.457Z,5.13
2023-02-23T20:40:54.936Z,4.53
2023-02-23T20:43:22.405Z,5.38
2023-02-23T20:45:49.791Z,4.13
2023-02-23T20:48:17.246Z,4.03
2023-02-23T20:50:44.654Z,4.65
2023-02-23T20:53:12.172Z,5.03
2023-02-23T20:55:39.632Z,4.30
2023-02-23T20:58:07.247Z,4.20
2023-02-23T21:00:34.710Z,3.92
2023-02-23T21:03:03.354Z,4.35
2023-02-23T21:05:32.631Z,4.53
2023-02-23T21:08:01.395Z,4.43
2023-02-23T21:10:32.978Z,4.05
2023-02-23T21:13:01.343Z,3.97
2023-02-23T21:15:29.629Z,3.97
2023-02-23T21:17:57.649Z,3.67
2023-02-23T21:20:27.486Z,4.20
2023-02-23T21:22:55.288Z,4.55
2023-02-23T21:25:23.609Z,4.20
2023-02-23T21:27:51.579Z,4.47
2023-02-23T21:30:20.375Z,4.85
2023-02-23T21:32:51.918Z,4.72
2023-02-23T21:35:20.057Z,5.00
2023-02-23T21:37:47.741Z,4.40
2023-02-23T21:40:20.739Z,4.82
2023-02-23T21:42:48.661Z,4.53
2023-02-23T21:45:16.453Z,4.22
2023-02-23T21:47:44.895Z,4.38
2023-02-23T21:50:13.719Z,4.40
2023-02-23T21:52:43.785Z,4.32
2023-02-23T21:55:23.445Z,4.47
2023-02-23T21:57:52.124Z,4.60
2023-02-23T22:00:20.918Z,4.85
2023-02-23T22:02:48.801Z,4.97
2023-02-23T22:05:17.208Z,5.35
2023-02-23T22:07:48.885Z,4.57
2023-02-23T22:10:17.220Z,5.22
2023-02-23T22:12:44.666Z,5.38
2023-02-23T22:15:12.345Z,5.47
2023-02-23T22:17:39.811Z,4.65
2023-02-23T22:20:08.331Z,5.20
2023-02-23T22:22:36.354Z,4.90
2023-02-23T22:25:04.957Z,4.75
2023-02-23T22:27:32.706Z,4.80
2023-02-23T22:30:01.547Z,4.50
2023-02-23T22:32:33.429Z,4.65
2023-02-23T22:35:02.891Z,5.28
2023-02-23T22:37:31.527Z,4.60
2023-02-23T22:40:00.279Z,4.53
2023-02-23T22:42:35.403Z,4.40
2023-02-23T22:45:02.900Z,4.60
2023-02-23T22:47:30.270Z,4.57
2023-02-23T22:49:58.474Z,4.75
2023-02-23T22:52:29.403Z,5.05
2023-02-23T22:54:56.907Z,4.30
2023-02-23T22:57:24.414Z,4.13
2023-02-23T22:59:54.839Z,4.20
2023-02-23T23:02:23.029Z,4.65
2023-02-23T23:04:54.206Z,4.75
2023-02-23T23:07:21.705Z,4.43
2023-02-23T23:09:49.524Z,4.47
2023-02-23T23:12:18.201Z,4.40
2023-02-23T23:14:47.538Z,3.53
2023-02-23T23:17:15.818Z,4.80
2023-02-23T23:19:43.429Z,4.75
2023-02-23T23:22:14.437Z,4.32
2023-02-23T23:24:46.112Z,5.53
2023-02-23T23:27:19.801Z,4.70
2023-02-23T23:29:48.050Z,4.80
2023-02-23T23:32:21.257Z,4.65
2023-02-23T23:34:49.707Z,4.80
2023-02-23T23:37:20.051Z,4.30
2023-02-23T23:39:59.055Z,4.10
2023-02-23T23:42:27.554Z,4.40
2023-02-23T23:44:57.020Z,4.38
2023-02-23T23:47:24.743Z,4.13
2023-02-23T23:49:54.584Z,4.40
2023-02-23T23:52:22.004Z,4.47
2023-02-23T23:54:49.405Z,3.95
2023-02-23T23:57:17.449Z,4.00
2023-02-23T23:59:46.203Z,4.15
